createdAt,value
2017-09-17T00:00:29.501Z,0
2017-09-17T00:01:30.870Z,0
2017-09-17T00:02:32.296Z,0
2017-09-17T00:03:33.665Z,0
2017-09-17T00:04:35.062Z,0
2017-09-17T00:05:36.433Z,0
2017-09-17T00:06:38.256Z,0
2017-09-17T00:07:39.624Z,0
2017-09-17T00:08:41.030Z,0
2017-09-17T00:09:42.413Z,0
2017-09-17T00:10:43.812Z,0
2017-09-17T00:11:45.172Z,0
2017-09-17T00:12:46.593Z,0
2017-09-17T00:13:48.345Z,0
2017-09-17T00:14:49.784Z,0
2017-09-17T00:15:51.152Z,0
2017-09-17T00:16:52.566Z,0
2017-09-17T00:17:53.934Z,0
2017-09-17T00:18:55.348Z,0
2017-09-17T00:19:56.712Z,0
2017-09-17T00:20:58.122Z,0
2017-09-17T00:21:59.502Z,0
2017-09-17T00:23:00.892Z,0
2017-09-17T00:24:02.270Z,0
2017-09-17T00:25:03.675Z,0
2017-09-17T00:26:05.051Z,0
2017-09-17T00:27:06.456Z,0
2017-09-17T00:28:07.825Z,0
2017-09-17T00:29:09.231Z,0
2017-09-17T00:30:10.602Z,0
2017-09-17T00:31:12.024Z,0
2017-09-17T00:32:13.397Z,0
2017-09-17T00:33:14.794Z,0
2017-09-17T00:34:16.167Z,0
2017-09-17T00:35:17.575Z,0
2017-09-17T00:36:18.945Z,0
2017-09-17T00:37:20.355Z,0
2017-09-17T00:38:21.726Z,0
2017-09-17T00:39:23.134Z,0
2017-09-17T00:40:24.500Z,0
2017-09-17T00:41:25.915Z,0
2017-09-17T00:42:27.291Z,0
2017-09-17T00:43:28.694Z,0
2017-09-17T00:44:30.066Z,0
2017-09-17T00:45:31.473Z,0
2017-09-17T00:46:32.844Z,0
2017-09-17T00:47:34.252Z,0
2017-09-17T00:48:35.624Z,0
2017-09-17T00:49:37.035Z,0
2017-09-17T00:50:38.408Z,0
2017-09-17T00:51:39.809Z,0
2017-09-17T00:52:41.178Z,0
2017-09-17T00:53:42.883Z,0
2017-09-17T00:54:44.265Z,0
2017-09-17T00:55:45.678Z,0
2017-09-17T00:56:47.045Z,0
2017-09-17T00:57:48.456Z,0
2017-09-17T00:58:50.225Z,0
2017-09-17T00:59:51.647Z,0
2017-09-17T01:00:53.014Z,0
2017-09-17T01:01:54.427Z,0
2017-09-17T01:02:56.184Z,0
2017-09-17T01:03:57.615Z,0
2017-09-17T01:04:58.983Z,0
2017-09-17T01:06:00.855Z,0
2017-09-17T01:07:02.225Z,0
2017-09-17T01:08:03.686Z,0
2017-09-17T01:09:05.075Z,0
2017-09-17T01:10:06.464Z,0
2017-09-17T01:11:07.846Z,0
2017-09-17T01:12:09.245Z,0
2017-09-17T01:13:10.608Z,0
2017-09-17T01:14:12.025Z,0
2017-09-17T01:15:13.385Z,0
2017-09-17T01:16:14.804Z,0
2017-09-17T01:17:16.563Z,0
2017-09-17T01:18:17.993Z,0
2017-09-17T01:19:19.364Z,0
2017-09-17T01:20:20.774Z,0
2017-09-17T01:21:22.152Z,0
2017-09-17T01:22:23.552Z,0
2017-09-17T01:23:24.939Z,0
2017-09-17T01:24:26.352Z,0
2017-09-17T01:25:27.721Z,0
2017-09-17T01:26:29.228Z,0
2017-09-17T01:27:31.009Z,0
2017-09-17T01:28:32.413Z,0
2017-09-17T01:29:33.780Z,0
2017-09-17T01:30:35.191Z,0
2017-09-17T01:31:36.557Z,0
2017-09-17T01:32:37.982Z,0
2017-09-17T01:33:39.351Z,0
2017-09-17T01:34:41.122Z,0
2017-09-17T01:35:42.881Z,0
2017-09-17T01:36:44.725Z,0
2017-09-17T01:37:46.093Z,0
2017-09-17T01:38:47.903Z,0
2017-09-17T01:39:49.272Z,0
2017-09-17T01:40:50.720Z,0
2017-09-17T01:41:52.089Z,0
2017-09-17T01:42:53.500Z,0
2017-09-17T01:43:55.242Z,0
2017-09-17T01:44:56.688Z,0
2017-09-17T01:45:58.115Z,0
2017-09-17T01:46:59.566Z,0
2017-09-17T01:48:00.942Z,0
2017-09-17T01:49:02.351Z,0
2017-09-17T01:50:03.718Z,0
2017-09-17T01:51:05.126Z,0
2017-09-17T01:52:06.496Z,0
2017-09-17T01:53:07.907Z,0
2017-09-17T01:54:09.278Z,0
2017-09-17T01:55:10.693Z,0
2017-09-17T01:56:12.065Z,0
2017-09-17T01:57:13.468Z,0
2017-09-17T01:58:14.833Z,0
2017-09-17T01:59:16.247Z,0
2017-09-17T02:00:17.614Z,0
2017-09-17T02:01:19.024Z,0
2017-09-17T02:02:20.395Z,0
2017-09-17T02:03:21.829Z,0
2017-09-17T02:04:23.202Z,0
2017-09-17T02:05:24.585Z,0
2017-09-17T02:06:25.949Z,0
2017-09-17T02:07:27.368Z,0
2017-09-17T02:08:28.745Z,0
2017-09-17T02:09:30.147Z,0
2017-09-17T02:10:31.516Z,0
2017-09-17T02:11:32.926Z,0
2017-09-17T02:12:34.286Z,0
2017-09-17T02:13:35.704Z,0
2017-09-17T02:14:37.073Z,0
2017-09-17T02:15:38.486Z,0
2017-09-17T02:16:39.853Z,0
2017-09-17T02:17:41.262Z,0
2017-09-17T02:18:42.629Z,0
2017-09-17T02:19:44.040Z,0
2017-09-17T02:20:45.794Z,0
2017-09-17T02:21:47.245Z,0
2017-09-17T02:22:48.604Z,0
2017-09-17T02:23:50.009Z,0
2017-09-17T02:24:51.378Z,0
2017-09-17T02:25:52.788Z,0
2017-09-17T02:26:54.154Z,0
2017-09-17T02:27:55.570Z,0
2017-09-17T02:28:56.939Z,0
2017-09-17T02:29:58.347Z,0
2017-09-17T02:30:59.724Z,0
2017-09-17T02:32:01.128Z,0
2017-09-17T02:33:02.495Z,0
2017-09-17T02:34:03.906Z,0
2017-09-17T02:35:05.275Z,0
2017-09-17T02:36:06.686Z,0
2017-09-17T02:37:08.053Z,0
2017-09-17T02:38:09.465Z,0
2017-09-17T02:39:10.833Z,0
2017-09-17T02:40:12.251Z,0
2017-09-17T02:41:13.611Z,0
2017-09-17T02:42:15.022Z,0
2017-09-17T02:43:16.390Z,0
2017-09-17T02:44:17.803Z,0
2017-09-17T02:45:19.175Z,0
2017-09-17T02:46:20.583Z,0
2017-09-17T02:47:21.954Z,0
2017-09-17T02:48:23.365Z,0
2017-09-17T02:49:24.737Z,0
2017-09-17T02:50:26.144Z,0
2017-09-17T02:51:27.510Z,0
2017-09-17T02:52:28.916Z,0
2017-09-17T02:53:30.292Z,0
2017-09-17T02:54:31.707Z,0
2017-09-17T02:55:33.069Z,0
2017-09-17T02:56:34.497Z,0
2017-09-17T02:57:35.849Z,0
2017-09-17T02:58:37.268Z,0
2017-09-17T02:59:38.626Z,0
2017-09-17T03:00:40.043Z,0
2017-09-17T03:01:41.413Z,0
2017-09-17T03:02:42.820Z,0
2017-09-17T03:03:44.583Z,0
2017-09-17T03:04:46.021Z,0
2017-09-17T03:05:47.777Z,0
2017-09-17T03:06:49.194Z,0
2017-09-17T03:07:50.584Z,0
2017-09-17T03:08:51.977Z,0
2017-09-17T03:09:53.348Z,0
2017-09-17T03:10:54.761Z,0
2017-09-17T03:11:56.128Z,0
2017-09-17T03:12:57.544Z,0
2017-09-17T03:13:58.906Z,0
2017-09-17T03:15:00.318Z,0
2017-09-17T03:16:01.684Z,0
2017-09-17T03:17:03.092Z,0
2017-09-17T03:18:04.457Z,0
2017-09-17T03:19:05.894Z,0
2017-09-17T03:20:07.263Z,0
2017-09-17T03:21:08.658Z,0
2017-09-17T03:22:10.094Z,0
2017-09-17T03:23:11.537Z,0
2017-09-17T03:24:12.900Z,0
2017-09-17T03:25:14.316Z,0
2017-09-17T03:26:15.683Z,0
2017-09-17T03:27:17.095Z,0
2017-09-17T03:28:18.472Z,0
2017-09-17T03:29:19.877Z,0
2017-09-17T03:30:21.244Z,0
2017-09-17T03:31:22.664Z,0
2017-09-17T03:32:24.035Z,0
2017-09-17T03:33:25.434Z,0
2017-09-17T03:34:26.813Z,0
2017-09-17T03:35:28.217Z,0
2017-09-17T03:36:29.582Z,0
2017-09-17T03:37:31.000Z,0
2017-09-17T03:38:32.388Z,0
2017-09-17T03:39:33.782Z,0
2017-09-17T03:40:35.143Z,0
2017-09-17T03:41:36.555Z,0
2017-09-17T03:42:37.924Z,0
2017-09-17T03:43:39.335Z,0
2017-09-17T03:44:40.708Z,0
2017-09-17T03:45:42.111Z,0
2017-09-17T03:46:43.480Z,0
2017-09-17T03:47:45.301Z,0
2017-09-17T03:48:46.671Z,0
2017-09-17T03:49:48.087Z,0
2017-09-17T03:50:49.402Z,0
2017-09-17T03:51:50.858Z,0
2017-09-17T03:52:52.230Z,0
2017-09-17T03:53:53.640Z,0
2017-09-17T03:54:55.007Z,0
2017-09-17T03:55:56.420Z,0
2017-09-17T03:56:57.788Z,0
2017-09-17T03:57:59.199Z,0
2017-09-17T03:59:00.574Z,0
2017-09-17T04:00:01.978Z,0
2017-09-17T04:01:03.347Z,0
2017-09-17T04:02:04.759Z,0
2017-09-17T04:03:06.123Z,0
2017-09-17T04:04:07.537Z,0
2017-09-17T04:05:08.907Z,0
2017-09-17T04:06:10.318Z,0
2017-09-17T04:07:11.683Z,0
2017-09-17T04:08:13.054Z,0
2017-09-17T04:09:14.415Z,0
2017-09-17T04:10:15.879Z,0
2017-09-17T04:11:17.247Z,0
2017-09-17T04:12:18.656Z,0
2017-09-17T04:13:20.026Z,0
2017-09-17T04:14:21.436Z,0
2017-09-17T04:15:22.801Z,0
2017-09-17T04:16:24.237Z,0
2017-09-17T04:17:25.604Z,0
2017-09-17T04:18:26.995Z,0
2017-09-17T04:19:28.368Z,0
2017-09-17T04:20:29.770Z,0
2017-09-17T04:21:31.144Z,0
2017-09-17T04:22:32.556Z,0
2017-09-17T04:23:33.921Z,0
2017-09-17T04:24:35.341Z,0
2017-09-17T04:25:36.703Z,0
2017-09-17T04:26:38.126Z,0
2017-09-17T04:27:39.497Z,0
2017-09-17T04:28:40.892Z,0
2017-09-17T04:29:42.257Z,0
2017-09-17T04:30:43.671Z,0
2017-09-17T04:31:45.041Z,0
2017-09-17T04:32:46.749Z,0
2017-09-17T04:33:48.118Z,0
2017-09-17T04:34:49.536Z,0
2017-09-17T04:35:50.903Z,0
2017-09-17T04:36:52.317Z,0
2017-09-17T04:37:53.685Z,0
2017-09-17T04:38:55.097Z,0
2017-09-17T04:39:56.466Z,4
2017-09-17T04:40:57.877Z,4
2017-09-17T04:41:59.244Z,0
2017-09-17T04:43:00.657Z,4
2017-09-17T04:44:02.026Z,4
2017-09-17T04:45:03.435Z,4
2017-09-17T04:46:04.803Z,4
2017-09-17T04:47:06.214Z,4
2017-09-17T04:48:07.581Z,8
2017-09-17T04:49:09.370Z,8
2017-09-17T04:50:10.737Z,8
2017-09-17T04:51:12.184Z,12
2017-09-17T04:52:13.557Z,16
2017-09-17T04:53:14.963Z,16
2017-09-17T04:54:16.341Z,20
2017-09-17T04:55:17.744Z,24
2017-09-17T04:56:19.121Z,32
2017-09-17T04:57:20.523Z,32
2017-09-17T04:58:21.929Z,40
2017-09-17T04:59:23.401Z,48
2017-09-17T05:00:24.775Z,60
2017-09-17T05:01:26.189Z,68
2017-09-17T05:02:27.565Z,76
2017-09-17T05:03:28.962Z,92
2017-09-17T05:04:30.337Z,104
2017-09-17T05:05:31.744Z,120
2017-09-17T05:06:33.117Z,144
2017-09-17T05:07:34.526Z,164
2017-09-17T05:08:35.894Z,192
2017-09-17T05:09:37.303Z,216
2017-09-17T05:10:38.679Z,244
2017-09-17T05:11:40.083Z,280
2017-09-17T05:12:41.455Z,312
2017-09-17T05:13:42.863Z,356
2017-09-17T05:14:44.234Z,400
2017-09-17T05:15:45.641Z,448
2017-09-17T05:16:47.018Z,500
2017-09-17T05:17:48.424Z,556
2017-09-17T05:18:49.790Z,612
2017-09-17T05:19:51.582Z,676
2017-09-17T05:20:52.953Z,740
2017-09-17T05:21:54.393Z,808
2017-09-17T05:22:55.756Z,880
2017-09-17T05:23:57.168Z,960
2017-09-17T05:24:58.546Z,1036
2017-09-17T05:25:59.953Z,1108
2017-09-17T05:27:01.327Z,1188
2017-09-17T05:28:02.733Z,1272
2017-09-17T05:29:04.104Z,1376
2017-09-17T05:30:05.509Z,1484
2017-09-17T05:31:06.883Z,1592
2017-09-17T05:32:08.282Z,1700
2017-09-17T05:33:09.663Z,1796
2017-09-17T05:34:11.066Z,1884
2017-09-17T05:35:12.440Z,1976
2017-09-17T05:36:13.880Z,2076
2017-09-17T05:37:15.220Z,2192
2017-09-17T05:38:16.627Z,2320
2017-09-17T05:39:18.000Z,2460
2017-09-17T05:40:19.407Z,2628
2017-09-17T05:41:20.777Z,2804
2017-09-17T05:42:22.191Z,2968
2017-09-17T05:43:23.643Z,3124
2017-09-17T05:44:25.071Z,3272
2017-09-17T05:45:26.453Z,3416
2017-09-17T05:46:27.851Z,3540
2017-09-17T05:47:29.224Z,3644
2017-09-17T05:48:30.629Z,3732
2017-09-17T05:49:32.001Z,3808
2017-09-17T05:50:33.410Z,3872
2017-09-17T05:51:34.786Z,3948
2017-09-17T05:52:36.571Z,4028
2017-09-17T05:53:37.944Z,4124
2017-09-17T05:54:39.378Z,4208
2017-09-17T05:55:40.748Z,4332
2017-09-17T05:56:42.160Z,4400
2017-09-17T05:57:43.528Z,4468
2017-09-17T05:58:44.935Z,4684
2017-09-17T05:59:46.308Z,5004
2017-09-17T06:00:47.715Z,5084
2017-09-17T06:01:49.489Z,4936
2017-09-17T06:02:50.903Z,5092
2017-09-17T06:03:52.272Z,5296
2017-09-17T06:04:53.686Z,5488
2017-09-17T06:05:55.058Z,5668
2017-09-17T06:06:56.465Z,5840
2017-09-17T06:07:57.834Z,5980
2017-09-17T06:08:59.244Z,6128
2017-09-17T06:10:00.612Z,6232
2017-09-17T06:11:02.021Z,6340
2017-09-17T06:12:03.393Z,6504
2017-09-17T06:13:04.804Z,6652
2017-09-17T06:14:06.173Z,6992
2017-09-17T06:15:07.581Z,7948
2017-09-17T06:16:08.950Z,9156
2017-09-17T06:17:10.360Z,9924
2017-09-17T06:18:11.734Z,10300
2017-09-17T06:19:13.145Z,8996
2017-09-17T06:20:14.523Z,8564
2017-09-17T06:21:15.920Z,10416
2017-09-17T06:22:17.292Z,11092
2017-09-17T06:23:18.702Z,10324
2017-09-17T06:24:20.074Z,9676
2017-09-17T06:25:21.480Z,9412
2017-09-17T06:26:22.858Z,9568
2017-09-17T06:27:24.263Z,10024
2017-09-17T06:28:25.629Z,10548
2017-09-17T06:29:27.041Z,11116
2017-09-17T06:30:28.419Z,11508
2017-09-17T06:31:29.821Z,11612
2017-09-17T06:32:31.200Z,11664
2017-09-17T06:33:32.604Z,11668
2017-09-17T06:34:33.977Z,11664
2017-09-17T06:35:35.379Z,11660
2017-09-17T06:36:36.753Z,11752
2017-09-17T06:37:38.158Z,12004
2017-09-17T06:38:39.534Z,12272
2017-09-17T06:39:40.941Z,12392
2017-09-17T06:40:42.689Z,12424
2017-09-17T06:41:44.124Z,12360
2017-09-17T06:42:45.503Z,12264
2017-09-17T06:43:47.282Z,12104
2017-09-17T06:44:48.660Z,13316
2017-09-17T06:45:50.475Z,17376
2017-09-17T06:46:51.855Z,18112
2017-09-17T06:47:53.283Z,18272
2017-09-17T06:48:55.045Z,26368
2017-09-17T06:49:56.472Z,29184
2017-09-17T06:50:57.849Z,28480
2017-09-17T06:51:59.261Z,28352
2017-09-17T06:53:00.634Z,27872
2017-09-17T06:54:02.030Z,30144
2017-09-17T06:55:03.411Z,30720
2017-09-17T06:56:04.975Z,30560
2017-09-17T06:57:06.358Z,30592
2017-09-17T06:58:07.798Z,30976
2017-09-17T06:59:09.173Z,30304
2017-09-17T07:00:10.577Z,30720
2017-09-17T07:01:11.961Z,33152
2017-09-17T07:02:13.351Z,34464
2017-09-17T07:03:15.107Z,32800
2017-09-17T07:04:16.932Z,30816
2017-09-17T07:05:18.312Z,29440
2017-09-17T07:06:19.732Z,29696
2017-09-17T07:07:21.121Z,26688
2017-09-17T07:08:22.541Z,25984
2017-09-17T07:09:23.927Z,23328
2017-09-17T07:10:25.393Z,18560
2017-09-17T07:11:26.774Z,17696
2017-09-17T07:12:28.175Z,15668
2017-09-17T07:13:29.552Z,15660
2017-09-17T07:14:30.951Z,16896
2017-09-17T07:15:32.336Z,15588
2017-09-17T07:16:33.736Z,15416
2017-09-17T07:17:35.113Z,15204
2017-09-17T07:18:36.512Z,15136
2017-09-17T07:19:38.277Z,15432
2017-09-17T07:20:39.698Z,15856
2017-09-17T07:21:41.453Z,16228
2017-09-17T07:22:42.890Z,16852
2017-09-17T07:23:44.267Z,17048
2017-09-17T07:24:45.670Z,22528
2017-09-17T07:25:47.057Z,20096
2017-09-17T07:26:48.455Z,22592
2017-09-17T07:27:50.223Z,18688
2017-09-17T07:28:52.019Z,19136
2017-09-17T07:29:53.400Z,19744
2017-09-17T07:30:54.826Z,19808
2017-09-17T07:31:56.592Z,19328
2017-09-17T07:32:58.040Z,18208
2017-09-17T07:33:59.431Z,16952
2017-09-17T07:35:00.899Z,16968
2017-09-17T07:36:02.300Z,15020
2017-09-17T07:37:03.679Z,14112
2017-09-17T07:38:05.058Z,13752
2017-09-17T07:39:06.472Z,14268
2017-09-17T07:40:07.849Z,14124
2017-09-17T07:41:09.339Z,12932
2017-09-17T07:42:10.717Z,12280
2017-09-17T07:43:12.128Z,12160
2017-09-17T07:44:13.520Z,11904
2017-09-17T07:45:15.002Z,11720
2017-09-17T07:46:16.385Z,12540
2017-09-17T07:47:17.790Z,12912
2017-09-17T07:48:19.172Z,15384
2017-09-17T07:49:20.564Z,15572
2017-09-17T07:50:21.958Z,24864
2017-09-17T07:51:23.440Z,25376
2017-09-17T07:52:24.821Z,25952
2017-09-17T07:53:26.226Z,25696
2017-09-17T07:54:27.604Z,23776
2017-09-17T07:55:29.018Z,16592
2017-09-17T07:56:30.409Z,16132
2017-09-17T07:57:31.883Z,16240
2017-09-17T07:58:33.267Z,16576
2017-09-17T07:59:34.647Z,15060
2017-09-17T08:00:36.030Z,14804
2017-09-17T08:01:37.447Z,14668
2017-09-17T08:02:38.826Z,14868
2017-09-17T08:03:40.237Z,26400
2017-09-17T08:04:41.608Z,29472
2017-09-17T08:05:43.108Z,30560
2017-09-17T08:06:44.493Z,31136
2017-09-17T08:07:45.887Z,30464
2017-09-17T08:08:47.265Z,30176
2017-09-17T08:09:48.663Z,30400
2017-09-17T08:10:50.038Z,21536
2017-09-17T08:11:51.446Z,26176
2017-09-17T08:12:53.208Z,29632
2017-09-17T08:13:54.633Z,26528
2017-09-17T08:14:56.012Z,25792
2017-09-17T08:15:57.415Z,18184
2017-09-17T08:16:59.188Z,19232
2017-09-17T08:18:00.599Z,21984
2017-09-17T08:19:02.002Z,22848
2017-09-17T08:20:03.493Z,34656
2017-09-17T08:21:04.870Z,25952
2017-09-17T08:22:06.361Z,31776
2017-09-17T08:23:07.747Z,30048
2017-09-17T08:24:09.146Z,35296
2017-09-17T08:25:10.540Z,51104
2017-09-17T08:26:12.021Z,46816
2017-09-17T08:27:13.415Z,27072
2017-09-17T08:28:14.812Z,20672
2017-09-17T08:29:16.188Z,20320
2017-09-17T08:30:17.796Z,21568
2017-09-17T08:31:19.246Z,23008
2017-09-17T08:32:20.713Z,24032
2017-09-17T08:33:22.146Z,28672
2017-09-17T08:34:23.630Z,27488
2017-09-17T08:35:25.067Z,25280
2017-09-17T08:36:26.612Z,24608
2017-09-17T08:37:28.057Z,24416
2017-09-17T08:38:29.566Z,28640
2017-09-17T08:39:31.040Z,26688
2017-09-17T08:40:32.569Z,25184
2017-09-17T08:41:34.054Z,26112
2017-09-17T08:42:35.558Z,20128
2017-09-17T08:43:37.044Z,20416
2017-09-17T08:44:38.530Z,19968
2017-09-17T08:45:39.941Z,23296
2017-09-17T08:46:41.427Z,24480
2017-09-17T08:47:42.874Z,28928
2017-09-17T08:48:44.359Z,27872
2017-09-17T08:49:45.758Z,22912
2017-09-17T08:50:47.229Z,23616
2017-09-17T08:51:48.639Z,29440
2017-09-17T08:52:50.149Z,66496
2017-09-17T08:53:51.631Z,36544
2017-09-17T08:54:53.119Z,27776
2017-09-17T08:55:55.074Z,38784
2017-09-17T08:56:56.578Z,26880
2017-09-17T08:57:58.022Z,25024
2017-09-17T08:58:59.509Z,25504
2017-09-17T09:00:01.192Z,27616
2017-09-17T09:01:02.683Z,24960
2017-09-17T09:02:04.094Z,25056
2017-09-17T09:03:05.616Z,27200
2017-09-17T09:04:07.124Z,25344
2017-09-17T09:05:08.613Z,25280
2017-09-17T09:06:10.049Z,25600
2017-09-17T09:07:11.561Z,25728
2017-09-17T09:08:12.982Z,25280
2017-09-17T09:09:14.406Z,25536
2017-09-17T09:10:15.829Z,25856
2017-09-17T09:11:17.319Z,26080
2017-09-17T09:12:18.729Z,27008
2017-09-17T09:13:20.308Z,27808
2017-09-17T09:14:21.731Z,28512
2017-09-17T09:15:23.157Z,29280
2017-09-17T09:16:24.581Z,30176
2017-09-17T09:17:26.131Z,31360
2017-09-17T09:18:27.561Z,33184
2017-09-17T09:19:29.063Z,34368
2017-09-17T09:20:30.547Z,39488
2017-09-17T09:21:32.048Z,36288
2017-09-17T09:22:33.510Z,36512
2017-09-17T09:23:35.146Z,45728
2017-09-17T09:24:36.549Z,36288
2017-09-17T09:25:38.008Z,37152
2017-09-17T09:26:39.469Z,36960
2017-09-17T09:27:40.992Z,34912
2017-09-17T09:28:42.406Z,34688
2017-09-17T09:29:43.882Z,34528
2017-09-17T09:30:45.359Z,33312
2017-09-17T09:31:46.833Z,33408
2017-09-17T09:32:48.323Z,33696
2017-09-17T09:33:49.844Z,34464
2017-09-17T09:34:51.295Z,36096
2017-09-17T09:35:52.850Z,35680
2017-09-17T09:36:54.366Z,35680
2017-09-17T09:37:55.858Z,36768
2017-09-17T09:38:57.376Z,36672
2017-09-17T09:39:58.940Z,36512
2017-09-17T09:41:00.321Z,36704
2017-09-17T09:42:02.017Z,37152
2017-09-17T09:43:03.416Z,38592
2017-09-17T09:44:04.846Z,38816
2017-09-17T09:45:06.273Z,38592
2017-09-17T09:46:07.709Z,39072
2017-09-17T09:47:09.118Z,40128
2017-09-17T09:48:10.603Z,39936
2017-09-17T09:49:12.060Z,39936
2017-09-17T09:50:13.636Z,40320
2017-09-17T09:51:15.060Z,41120
2017-09-17T09:52:16.574Z,44672
2017-09-17T09:53:18.087Z,53472
2017-09-17T09:54:19.560Z,44320
2017-09-17T09:55:21.004Z,44512
2017-09-17T09:56:22.485Z,48096
2017-09-17T09:57:24.009Z,43392
2017-09-17T09:58:25.674Z,40992
2017-09-17T09:59:27.101Z,47360
2017-09-17T10:00:28.690Z,45632
2017-09-17T10:01:30.140Z,43616
2017-09-17T10:02:31.640Z,43200
2017-09-17T10:03:33.059Z,44320
2017-09-17T10:04:34.638Z,39360
2017-09-17T10:05:36.070Z,41920
2017-09-17T10:06:37.604Z,41696
2017-09-17T10:07:39.163Z,41152
2017-09-17T10:08:40.697Z,44160
2017-09-17T10:09:42.256Z,43328
2017-09-17T10:10:43.857Z,42496
2017-09-17T10:11:45.303Z,42944
2017-09-17T10:12:46.863Z,41696
2017-09-17T10:13:48.322Z,43360
2017-09-17T10:14:49.879Z,50816
2017-09-17T10:15:51.526Z,56608
2017-09-17T10:16:53.367Z,45440
2017-09-17T10:17:54.826Z,55200
2017-09-17T10:18:56.369Z,62048
2017-09-17T10:19:57.795Z,67552
2017-09-17T10:20:59.298Z,50400
2017-09-17T10:22:00.719Z,59584
2017-09-17T10:23:02.182Z,78048
2017-09-17T10:24:03.682Z,143680
2017-09-17T10:25:05.180Z,228224
2017-09-17T10:26:06.654Z,228320
2017-09-17T10:27:08.178Z,188192
2017-09-17T10:28:09.635Z,196672
2017-09-17T10:29:11.172Z,191232
2017-09-17T10:30:12.634Z,90688
2017-09-17T10:31:14.265Z,81248
2017-09-17T10:32:15.703Z,69216
2017-09-17T10:33:17.212Z,61984
2017-09-17T10:34:18.631Z,56064
2017-09-17T10:35:20.122Z,59872
2017-09-17T10:36:21.609Z,56352
2017-09-17T10:37:23.090Z,57408
2017-09-17T10:38:24.548Z,56576
2017-09-17T10:39:26.076Z,54272
2017-09-17T10:40:27.543Z,53440
2017-09-17T10:41:29.074Z,51456
2017-09-17T10:42:30.540Z,51680
2017-09-17T10:43:32.049Z,51968
2017-09-17T10:44:33.492Z,52384
2017-09-17T10:45:35.040Z,48512
2017-09-17T10:46:36.499Z,50976
2017-09-17T10:47:38.159Z,28736
2017-09-17T10:48:39.576Z,37088
2017-09-17T10:49:41.055Z,56288
2017-09-17T10:50:42.501Z,56768
2017-09-17T10:51:43.967Z,56864
2017-09-17T10:52:45.366Z,55072
2017-09-17T10:53:46.860Z,52992
2017-09-17T10:54:48.385Z,51776
2017-09-17T10:55:49.816Z,38304
2017-09-17T10:56:51.270Z,39456
2017-09-17T10:57:52.828Z,43840
2017-09-17T10:58:54.273Z,49664
2017-09-17T10:59:55.795Z,51072
2017-09-17T11:00:57.318Z,50784
2017-09-17T11:01:58.817Z,51840
2017-09-17T11:03:00.336Z,52512
2017-09-17T11:04:01.934Z,52128
2017-09-17T11:05:03.384Z,51488
2017-09-17T11:06:04.924Z,51232
2017-09-17T11:07:06.405Z,53184
2017-09-17T11:08:07.996Z,53088
2017-09-17T11:09:09.394Z,51328
2017-09-17T11:10:10.880Z,50656
2017-09-17T11:11:12.318Z,20672
2017-09-17T11:12:13.832Z,20704
2017-09-17T11:13:15.267Z,29184
2017-09-17T11:14:16.810Z,50528
2017-09-17T11:15:18.249Z,55168
2017-09-17T11:16:19.777Z,54816
2017-09-17T11:17:21.208Z,57408
2017-09-17T11:18:22.628Z,56800
2017-09-17T11:19:24.087Z,55616
2017-09-17T11:20:25.540Z,48544
2017-09-17T11:21:26.988Z,46176
2017-09-17T11:22:28.515Z,46016
2017-09-17T11:23:29.934Z,38816
2017-09-17T11:24:31.411Z,21696
2017-09-17T11:25:33.265Z,21568
2017-09-17T11:26:34.810Z,21696
2017-09-17T11:27:36.223Z,21536
2017-09-17T11:28:37.718Z,21248
2017-09-17T11:29:39.181Z,22560
2017-09-17T11:30:40.709Z,24352
2017-09-17T11:31:42.142Z,26400
2017-09-17T11:32:43.686Z,29664
2017-09-17T11:33:45.124Z,30976
2017-09-17T11:34:46.623Z,53696
2017-09-17T11:35:48.115Z,81984
2017-09-17T11:36:49.612Z,83584
2017-09-17T11:37:51.048Z,81344
2017-09-17T11:38:52.481Z,77120
2017-09-17T11:39:53.922Z,30816
2017-09-17T11:40:55.391Z,44960
2017-09-17T11:41:56.847Z,48224
2017-09-17T11:42:58.354Z,72832
2017-09-17T11:43:59.814Z,80832
2017-09-17T11:45:01.336Z,75968
2017-09-17T11:46:02.770Z,70336
2017-09-17T11:47:04.225Z,66272
2017-09-17T11:48:05.661Z,61600
2017-09-17T11:49:07.102Z,57536
2017-09-17T11:50:08.548Z,55488
2017-09-17T11:51:10.025Z,54464
2017-09-17T11:52:11.511Z,53696
2017-09-17T11:53:12.982Z,53760
2017-09-17T11:54:14.427Z,54560
2017-09-17T11:55:15.963Z,54208
2017-09-17T11:56:17.438Z,54176
2017-09-17T11:57:19.011Z,31520
2017-09-17T11:58:20.750Z,54784
2017-09-17T11:59:22.241Z,51680
2017-09-17T12:00:23.754Z,50624
2017-09-17T12:01:25.411Z,44736
2017-09-17T12:02:26.853Z,50368
2017-09-17T12:03:28.407Z,23040
2017-09-17T12:04:29.978Z,23296
2017-09-17T12:05:31.517Z,24128
2017-09-17T12:06:32.955Z,23392
2017-09-17T12:07:34.515Z,22688
2017-09-17T12:08:36.368Z,22816
2017-09-17T12:09:37.877Z,25248
2017-09-17T12:10:39.274Z,30912
2017-09-17T12:11:40.786Z,23296
2017-09-17T12:12:42.918Z,23616
2017-09-17T12:13:44.477Z,44224
2017-09-17T12:14:45.899Z,57248
2017-09-17T12:15:47.551Z,26976
2017-09-17T12:16:49.000Z,24416
2017-09-17T12:17:50.942Z,23776
2017-09-17T12:18:52.378Z,24256
2017-09-17T12:19:54.074Z,24928
2017-09-17T12:20:55.579Z,26208
2017-09-17T12:21:57.184Z,32320
2017-09-17T12:22:58.608Z,30720
2017-09-17T12:24:00.396Z,29568
2017-09-17T12:25:01.860Z,24608
2017-09-17T12:26:04.484Z,22304
2017-09-17T12:27:06.094Z,21216
2017-09-17T12:28:07.673Z,19872
2017-09-17T12:29:09.173Z,18528
2017-09-17T12:30:10.703Z,17304
2017-09-17T12:31:12.210Z,16128
2017-09-17T12:32:13.801Z,15624
2017-09-17T12:33:15.265Z,15984
2017-09-17T12:34:16.785Z,19008
2017-09-17T12:35:18.390Z,16436
2017-09-17T12:36:19.930Z,15664
2017-09-17T12:37:21.471Z,16956
2017-09-17T12:38:22.975Z,18592
2017-09-17T12:39:24.468Z,20672
2017-09-17T12:40:26.074Z,21344
2017-09-17T12:41:27.555Z,21440
2017-09-17T12:42:29.159Z,24640
2017-09-17T12:43:30.640Z,23648
2017-09-17T12:44:32.155Z,22496
2017-09-17T12:45:33.683Z,21824
2017-09-17T12:46:35.265Z,21344
2017-09-17T12:47:36.731Z,22528
2017-09-17T12:48:38.415Z,27200
2017-09-17T12:49:39.870Z,26464
2017-09-17T12:50:41.810Z,47904
2017-09-17T12:51:43.266Z,51744
2017-09-17T12:52:44.778Z,29536
2017-09-17T12:53:46.274Z,28800
2017-09-17T12:54:47.772Z,29184
2017-09-17T12:55:49.275Z,28384
2017-09-17T12:56:50.867Z,27808
2017-09-17T12:57:52.374Z,26400
2017-09-17T12:58:53.939Z,24992
2017-09-17T12:59:55.660Z,24288
2017-09-17T13:00:57.280Z,23456
2017-09-17T13:01:58.764Z,22624
2017-09-17T13:03:00.285Z,21760
2017-09-17T13:04:01.720Z,21184
2017-09-17T13:05:03.157Z,20928
2017-09-17T13:06:04.664Z,21216
2017-09-17T13:07:06.209Z,21408
2017-09-17T13:08:07.673Z,21536
2017-09-17T13:09:09.182Z,21472
2017-09-17T13:10:10.597Z,21088
2017-09-17T13:11:12.189Z,20736
2017-09-17T13:12:13.663Z,20576
2017-09-17T13:13:15.242Z,21056
2017-09-17T13:14:16.671Z,21888
2017-09-17T13:15:18.208Z,22528
2017-09-17T13:16:19.613Z,22432
2017-09-17T13:17:21.116Z,21440
2017-09-17T13:18:22.572Z,20512
2017-09-17T13:19:24.118Z,20160
2017-09-17T13:20:25.585Z,20128
2017-09-17T13:21:27.054Z,20544
2017-09-17T13:22:28.532Z,21152
2017-09-17T13:23:30.305Z,21760
2017-09-17T13:24:31.746Z,22208
2017-09-17T13:25:33.242Z,22112
2017-09-17T13:26:34.758Z,22080
2017-09-17T13:27:36.311Z,22016
2017-09-17T13:28:37.755Z,23200
2017-09-17T13:29:39.349Z,22720
2017-09-17T13:30:40.846Z,22112
2017-09-17T13:31:42.431Z,22016
2017-09-17T13:32:43.878Z,21888
2017-09-17T13:33:45.395Z,21888
2017-09-17T13:34:47.268Z,21600
2017-09-17T13:35:48.749Z,21216
2017-09-17T13:36:50.185Z,20800
2017-09-17T13:37:51.652Z,20608
2017-09-17T13:38:53.136Z,20256
2017-09-17T13:39:54.675Z,19488
2017-09-17T13:40:56.122Z,18720
2017-09-17T13:41:57.657Z,18272
2017-09-17T13:42:59.124Z,18368
2017-09-17T13:44:00.633Z,18688
2017-09-17T13:45:02.541Z,19008
2017-09-17T13:46:04.103Z,19584
2017-09-17T13:47:05.583Z,20160
2017-09-17T13:48:07.084Z,20704
2017-09-17T13:49:08.615Z,20640
2017-09-17T13:50:10.244Z,20032
2017-09-17T13:51:11.768Z,18816
2017-09-17T13:52:13.255Z,17408
2017-09-17T13:53:14.727Z,16340